sensor_id;sensor_type;location;lat;lon;timestamp;temperature;humidity
41876;DHT22;27555;50.808;4.402;2022-08-14T00:00:39;22.50;78.20
41876;DHT22;27555;50.808;4.402;2022-08-14T00:03:05;22.50;77.80
41876;DHT22;27555;50.808;4.402;2022-08-14T00:05:31;22.60;77.90
41876;DHT22;27555;50.808;4.402;2022-08-14T00:07:57;22.60;77.90
41876;DHT22;27555;50.808;4.402;2022-08-14T00:10:22;22.60;77.80
41876;DHT22;27555;50.808;4.402;2022-08-14T00:12:52;22.60;77.80
41876;DHT22;27555;50.808;4.402;2022-08-14T00:15:23;22.60;77.90
41876;DHT22;27555;50.808;4.402;2022-08-14T00:17:50;22.50;77.70
41876;DHT22;27555;50.808;4.402;2022-08-14T00:20:19;22.60;77.60
41876;DHT22;27555;50.808;4.402;2022-08-14T00:22:46;22.60;77.50
41876;DHT22;27555;50.808;4.402;2022-08-14T00:25:12;22.60;77.40
41876;DHT22;27555;50.808;4.402;2022-08-14T00:27:37;22.50;77.50
41876;DHT22;27555;50.808;4.402;2022-08-14T00:30:06;22.40;77.90
41876;DHT22;27555;50.808;4.402;2022-08-14T00:32:33;22.30;78.00
41876;DHT22;27555;50.808;4.402;2022-08-14T00:34:58;22.10;78.20
41876;DHT22;27555;50.808;4.402;2022-08-14T00:37:27;22.00;78.40
41876;DHT22;27555;50.808;4.402;2022-08-14T00:39:53;21.90;78.50
41876;DHT22;27555;50.808;4.402;2022-08-14T00:42:20;21.80;78.40
41876;DHT22;27555;50.808;4.402;2022-08-14T00:44:46;21.70;78.40
41876;DHT22;27555;50.808;4.402;2022-08-14T00:47:13;21.60;78.40
41876;DHT22;27555;50.808;4.402;2022-08-14T00:49:39;21.70;78.60
41876;DHT22;27555;50.808;4.402;2022-08-14T00:52:05;21.60;78.60
41876;DHT22;27555;50.808;4.402;2022-08-14T00:54:32;21.60;78.70
41876;DHT22;27555;50.808;4.402;2022-08-14T00:56:57;21.60;78.70
41876;DHT22;27555;50.808;4.402;2022-08-14T00:59:25;21.60;78.80
41876;DHT22;27555;50.808;4.402;2022-08-14T01:01:58;21.50;79.30
41876;DHT22;27555;50.808;4.402;2022-08-14T01:04:26;21.50;79.40
41876;DHT22;27555;50.808;4.402;2022-08-14T01:06:53;21.50;79.40
41876;DHT22;27555;50.808;4.402;2022-08-14T01:09:19;21.60;79.40
41876;DHT22;27555;50.808;4.402;2022-08-14T01:11:49;21.60;79.30
41876;DHT22;27555;50.808;4.402;2022-08-14T01:14:16;21.60;79.50
41876;DHT22;27555;50.808;4.402;2022-08-14T01:16:41;21.50;79.80
41876;DHT22;27555;50.808;4.402;2022-08-14T01:19:07;21.50;79.60
41876;DHT22;27555;50.808;4.402;2022-08-14T01:21:51;21.40;79.60
41876;DHT22;27555;50.808;4.402;2022-08-14T01:24:17;21.40;80.20
41876;DHT22;27555;50.808;4.402;2022-08-14T01:26:43;21.40;79.80
41876;DHT22;27555;50.808;4.402;2022-08-14T01:29:11;21.40;79.90
41876;DHT22;27555;50.808;4.402;2022-08-14T01:31:37;21.50;80.00
41876;DHT22;27555;50.808;4.402;2022-08-14T01:34:24;21.50;80.70
41876;DHT22;27555;50.808;4.402;2022-08-14T01:36:51;21.50;80.30
41876;DHT22;27555;50.808;4.402;2022-08-14T01:39:18;21.50;80.10
41876;DHT22;27555;50.808;4.402;2022-08-14T01:41:48;21.50;80.00
41876;DHT22;27555;50.808;4.402;2022-08-14T01:44:20;21.50;80.00
41876;DHT22;27555;50.808;4.402;2022-08-14T01:46:46;21.40;80.30
41876;DHT22;27555;50.808;4.402;2022-08-14T01:49:14;21.30;80.50
41876;DHT22;27555;50.808;4.402;2022-08-14T01:51:40;21.20;80.10
41876;DHT22;27555;50.808;4.402;2022-08-14T01:54:12;21.20;80.20
41876;DHT22;27555;50.808;4.402;2022-08-14T01:56:38;21.20;80.90
41876;DHT22;27555;50.808;4.402;2022-08-14T01:59:07;21.10;81.10
41876;DHT22;27555;50.808;4.402;2022-08-14T02:01:34;21.10;81.00
41876;DHT22;27555;50.808;4.402;2022-08-14T02:04:02;21.10;81.00
41876;DHT22;27555;50.808;4.402;2022-08-14T02:06:28;21.00;81.10
41876;DHT22;27555;50.808;4.402;2022-08-14T02:08:54;20.90;81.10
41876;DHT22;27555;50.808;4.402;2022-08-14T02:11:21;20.80;81.90
41876;DHT22;27555;50.808;4.402;2022-08-14T02:14:07;20.80;82.20
41876;DHT22;27555;50.808;4.402;2022-08-14T02:16:36;20.90;81.90
41876;DHT22;27555;50.808;4.402;2022-08-14T02:19:06;20.80;82.10
41876;DHT22;27555;50.808;4.402;2022-08-14T02:21:34;20.80;82.10
41876;DHT22;27555;50.808;4.402;2022-08-14T02:24:02;20.80;82.10
41876;DHT22;27555;50.808;4.402;2022-08-14T02:26:32;20.70;82.40
41876;DHT22;27555;50.808;4.402;2022-08-14T02:29:04;20.60;82.60
41876;DHT22;27555;50.808;4.402;2022-08-14T02:31:34;20.60;83.50
41876;DHT22;27555;50.808;4.402;2022-08-14T02:36:38;20.60;83.40
41876;DHT22;27555;50.808;4.402;2022-08-14T02:39:08;20.50;83.10
41876;DHT22;27555;50.808;4.402;2022-08-14T02:41:35;20.50;84.20
41876;DHT22;27555;50.808;4.402;2022-08-14T02:44:02;20.50;83.80
41876;DHT22;27555;50.808;4.402;2022-08-14T02:46:28;20.50;84.00
41876;DHT22;27555;50.808;4.402;2022-08-14T02:48:57;20.50;83.90
41876;DHT22;27555;50.808;4.402;2022-08-14T02:51:23;20.50;83.80
41876;DHT22;27555;50.808;4.402;2022-08-14T02:53:49;20.50;83.80
41876;DHT22;27555;50.808;4.402;2022-08-14T02:56:16;20.50;84.40
41876;DHT22;27555;50.808;4.402;2022-08-14T02:58:47;20.50;84.30
41876;DHT22;27555;50.808;4.402;2022-08-14T03:01:14;20.60;84.40
41876;DHT22;27555;50.808;4.402;2022-08-14T03:03:41;20.60;84.10
41876;DHT22;27555;50.808;4.402;2022-08-14T03:06:09;20.70;84.00
41876;DHT22;27555;50.808;4.402;2022-08-14T03:08:36;20.60;84.20
41876;DHT22;27555;50.808;4.402;2022-08-14T03:11:04;20.60;84.40
41876;DHT22;27555;50.808;4.402;2022-08-14T03:13:36;20.50;84.60
41876;DHT22;27555;50.808;4.402;2022-08-14T03:16:03;20.30;85.20
41876;DHT22;27555;50.808;4.402;2022-08-14T03:18:29;20.30;85.40
41876;DHT22;27555;50.808;4.402;2022-08-14T03:20:55;20.30;85.30
41876;DHT22;27555;50.808;4.402;2022-08-14T03:23:21;20.30;85.30
41876;DHT22;27555;50.808;4.402;2022-08-14T03:25:46;20.30;85.50
41876;DHT22;27555;50.808;4.402;2022-08-14T03:28:13;20.30;85.30
41876;DHT22;27555;50.808;4.402;2022-08-14T03:30:39;20.30;85.50
41876;DHT22;27555;50.808;4.402;2022-08-14T03:33:06;20.30;85.90
41876;DHT22;27555;50.808;4.402;2022-08-14T03:35:33;20.30;86.00
41876;DHT22;27555;50.808;4.402;2022-08-14T03:38:10;20.30;86.00
41876;DHT22;27555;50.808;4.402;2022-08-14T03:40:37;20.30;85.90
41876;DHT22;27555;50.808;4.402;2022-08-14T03:43:05;20.30;85.80
41876;DHT22;27555;50.808;4.402;2022-08-14T03:45:36;20.30;85.90
41876;DHT22;27555;50.808;4.402;2022-08-14T03:48:14;20.30;86.00
41876;DHT22;27555;50.808;4.402;2022-08-14T03:50:44;20.20;86.10
41876;DHT22;27555;50.808;4.402;2022-08-14T03:53:10;20.30;86.10
41876;DHT22;27555;50.808;4.402;2022-08-14T03:55:37;20.20;86.30
41876;DHT22;27555;50.808;4.402;2022-08-14T03:58:05;20.20;86.20
41876;DHT22;27555;50.808;4.402;2022-08-14T04:00:31;20.10;86.50
41876;DHT22;27555;50.808;4.402;2022-08-14T04:02:57;20.10;86.80
41876;DHT22;27555;50.808;4.402;2022-08-14T04:05:23;20.10;87.20
41876;DHT22;27555;50.808;4.402;2022-08-14T04:07:49;20.10;87.40
41876;DHT22;27555;50.808;4.402;2022-08-14T04:10:15;20.00;87.10
41876;DHT22;27555;50.808;4.402;2022-08-14T04:12:41;20.00;87.60
41876;DHT22;27555;50.808;4.402;2022-08-14T04:15:08;19.90;87.90
41876;DHT22;27555;50.808;4.402;2022-08-14T04:17:33;19.90;88.70
41876;DHT22;27555;50.808;4.402;2022-08-14T04:20:00;19.90;88.30
41876;DHT22;27555;50.808;4.402;2022-08-14T04:22:31;19.80;88.40
41876;DHT22;27555;50.808;4.402;2022-08-14T04:24:58;19.80;88.90
41876;DHT22;27555;50.808;4.402;2022-08-14T04:27:26;19.80;89.20
41876;DHT22;27555;50.808;4.402;2022-08-14T04:29:52;19.80;88.60
41876;DHT22;27555;50.808;4.402;2022-08-14T04:32:19;19.80;88.90
41876;DHT22;27555;50.808;4.402;2022-08-14T04:34:47;19.90;88.80
41876;DHT22;27555;50.808;4.402;2022-08-14T04:37:13;19.90;89.30
41876;DHT22;27555;50.808;4.402;2022-08-14T04:39:57;19.90;88.90
41876;DHT22;27555;50.808;4.402;2022-08-14T04:42:41;19.90;89.20
41876;DHT22;27555;50.808;4.402;2022-08-14T04:45:26;19.90;89.40
41876;DHT22;27555;50.808;4.402;2022-08-14T04:48:14;19.90;89.50
41876;DHT22;27555;50.808;4.402;2022-08-14T04:50:45;19.90;89.20
41876;DHT22;27555;50.808;4.402;2022-08-14T04:53:17;19.90;89.20
41876;DHT22;27555;50.808;4.402;2022-08-14T04:55:44;19.70;89.50
41876;DHT22;27555;50.808;4.402;2022-08-14T04:58:14;19.60;90.20
41876;DHT22;27555;50.808;4.402;2022-08-14T05:00:45;19.50;90.50
41876;DHT22;27555;50.808;4.402;2022-08-14T05:03:13;19.50;90.60
41876;DHT22;27555;50.808;4.402;2022-08-14T05:05:39;19.60;90.60
41876;DHT22;27555;50.808;4.402;2022-08-14T05:08:07;19.60;90.60
41876;DHT22;27555;50.808;4.402;2022-08-14T05:10:45;19.80;90.60
41876;DHT22;27555;50.808;4.402;2022-08-14T05:13:12;19.90;90.40
41876;DHT22;27555;50.808;4.402;2022-08-14T05:15:39;20.00;90.40
41876;DHT22;27555;50.808;4.402;2022-08-14T05:18:11;20.10;90.50
41876;DHT22;27555;50.808;4.402;2022-08-14T05:20:46;20.20;90.00
41876;DHT22;27555;50.808;4.402;2022-08-14T05:23:13;20.20;90.00
41876;DHT22;27555;50.808;4.402;2022-08-14T05:25:40;20.30;88.20
41876;DHT22;27555;50.808;4.402;2022-08-14T05:28:10;20.40;87.50
41876;DHT22;27555;50.808;4.402;2022-08-14T05:30:37;20.30;87.00
41876;DHT22;27555;50.808;4.402;2022-08-14T05:33:04;20.40;87.60
41876;DHT22;27555;50.808;4.402;2022-08-14T05:35:30;20.40;87.00
41876;DHT22;27555;50.808;4.402;2022-08-14T05:37:58;20.40;87.20
41876;DHT22;27555;50.808;4.402;2022-08-14T05:40:24;20.40;87.10
41876;DHT22;27555;50.808;4.402;2022-08-14T05:42:50;20.50;86.90
41876;DHT22;27555;50.808;4.402;2022-08-14T05:45:15;20.60;87.30
41876;DHT22;27555;50.808;4.402;2022-08-14T05:47:41;20.60;87.20
41876;DHT22;27555;50.808;4.402;2022-08-14T05:50:09;20.70;87.00
41876;DHT22;27555;50.808;4.402;2022-08-14T05:52:36;20.80;86.80
41876;DHT22;27555;50.808;4.402;2022-08-14T05:55:01;20.80;86.70
41876;DHT22;27555;50.808;4.402;2022-08-14T05:57:28;20.80;86.70
41876;DHT22;27555;50.808;4.402;2022-08-14T05:59:55;20.70;86.70
41876;DHT22;27555;50.808;4.402;2022-08-14T06:02:20;20.80;87.00
41876;DHT22;27555;50.808;4.402;2022-08-14T06:04:46;20.80;86.50
41876;DHT22;27555;50.808;4.402;2022-08-14T06:07:13;21.00;86.50
41876;DHT22;27555;50.808;4.402;2022-08-14T06:09:39;21.10;85.50
41876;DHT22;27555;50.808;4.402;2022-08-14T06:12:06;21.20;83.40
41876;DHT22;27555;50.808;4.402;2022-08-14T06:14:32;21.20;84.30
41876;DHT22;27555;50.808;4.402;2022-08-14T06:16:58;21.30;84.40
41876;DHT22;27555;50.808;4.402;2022-08-14T06:19:25;21.40;82.40
41876;DHT22;27555;50.808;4.402;2022-08-14T06:21:51;21.50;83.20
41876;DHT22;27555;50.808;4.402;2022-08-14T06:24:16;21.60;78.60
41876;DHT22;27555;50.808;4.402;2022-08-14T06:26:43;21.70;80.30
41876;DHT22;27555;50.808;4.402;2022-08-14T06:29:09;21.70;78.20
41876;DHT22;27555;50.808;4.402;2022-08-14T06:31:35;21.90;78.80
41876;DHT22;27555;50.808;4.402;2022-08-14T06:34:01;21.90;76.30
41876;DHT22;27555;50.808;4.402;2022-08-14T06:36:27;22.10;76.30
41876;DHT22;27555;50.808;4.402;2022-08-14T06:38:53;22.40;75.40
41876;DHT22;27555;50.808;4.402;2022-08-14T06:41:20;22.50;74.00
41876;DHT22;27555;50.808;4.402;2022-08-14T06:43:47;22.60;73.80
41876;DHT22;27555;50.808;4.402;2022-08-14T06:46:13;22.70;73.60
41876;DHT22;27555;50.808;4.402;2022-08-14T06:48:39;22.80;73.30
41876;DHT22;27555;50.808;4.402;2022-08-14T06:51:05;23.00;73.10
41876;DHT22;27555;50.808;4.402;2022-08-14T06:53:31;23.10;72.70
41876;DHT22;27555;50.808;4.402;2022-08-14T06:55:56;23.20;72.70
41876;DHT22;27555;50.808;4.402;2022-08-14T06:58:22;23.30;72.20
41876;DHT22;27555;50.808;4.402;2022-08-14T07:00:48;23.40;72.00
41876;DHT22;27555;50.808;4.402;2022-08-14T07:03:33;23.60;71.70
41876;DHT22;27555;50.808;4.402;2022-08-14T07:06:18;23.70;71.80
41876;DHT22;27555;50.808;4.402;2022-08-14T07:08:44;23.90;71.60
41876;DHT22;27555;50.808;4.402;2022-08-14T07:11:11;24.00;70.60
41876;DHT22;27555;50.808;4.402;2022-08-14T07:13:37;24.30;70.50
41876;DHT22;27555;50.808;4.402;2022-08-14T07:16:03;24.50;69.80
41876;DHT22;27555;50.808;4.402;2022-08-14T07:18:31;24.50;69.90
41876;DHT22;27555;50.808;4.402;2022-08-14T07:20:59;24.50;70.40
41876;DHT22;27555;50.808;4.402;2022-08-14T07:23:25;24.70;70.20
41876;DHT22;27555;50.808;4.402;2022-08-14T07:25:54;25.10;69.20
41876;DHT22;27555;50.808;4.402;2022-08-14T07:28:27;25.40;68.60
41876;DHT22;27555;50.808;4.402;2022-08-14T07:30:55;25.60;68.20
41876;DHT22;27555;50.808;4.402;2022-08-14T07:33:23;25.70;67.40
41876;DHT22;27555;50.808;4.402;2022-08-14T07:35:50;26.00;66.50
41876;DHT22;27555;50.808;4.402;2022-08-14T07:38:18;26.70;65.90
41876;DHT22;27555;50.808;4.402;2022-08-14T07:40:48;27.50;64.90
41876;DHT22;27555;50.808;4.402;2022-08-14T07:43:14;28.10;64.10
41876;DHT22;27555;50.808;4.402;2022-08-14T07:45:41;28.80;63.60
41876;DHT22;27555;50.808;4.402;2022-08-14T07:48:07;29.40;62.10
41876;DHT22;27555;50.808;4.402;2022-08-14T07:50:33;30.00;61.40
41876;DHT22;27555;50.808;4.402;2022-08-14T07:52:59;30.30;61.10
41876;DHT22;27555;50.808;4.402;2022-08-14T07:55:26;30.80;60.50
41876;DHT22;27555;50.808;4.402;2022-08-14T07:57:52;31.00;60.40
41876;DHT22;27555;50.808;4.402;2022-08-14T08:00:21;30.80;60.00
41876;DHT22;27555;50.808;4.402;2022-08-14T08:02:50;30.60;60.40
41876;DHT22;27555;50.808;4.402;2022-08-14T08:05:18;30.80;60.50
41876;DHT22;27555;50.808;4.402;2022-08-14T08:07:46;31.00;60.10
41876;DHT22;27555;50.808;4.402;2022-08-14T08:10:16;31.40;59.80
41876;DHT22;27555;50.808;4.402;2022-08-14T08:13:09;31.60;59.30
41876;DHT22;27555;50.808;4.402;2022-08-14T08:15:55;31.80;59.40
41876;DHT22;27555;50.808;4.402;2022-08-14T08:18:24;32.10;59.40
41876;DHT22;27555;50.808;4.402;2022-08-14T08:20:53;32.00;58.80
41876;DHT22;27555;50.808;4.402;2022-08-14T08:23:21;32.40;58.70
41876;DHT22;27555;50.808;4.402;2022-08-14T08:25:48;33.00;58.50
41876;DHT22;27555;50.808;4.402;2022-08-14T08:28:16;33.20;57.60
41876;DHT22;27555;50.808;4.402;2022-08-14T08:30:48;33.40;57.70
41876;DHT22;27555;50.808;4.402;2022-08-14T08:33:14;33.20;57.50
41876;DHT22;27555;50.808;4.402;2022-08-14T08:35:41;33.10;57.60
41876;DHT22;27555;50.808;4.402;2022-08-14T08:38:13;32.70;57.80
41876;DHT22;27555;50.808;4.402;2022-08-14T08:40:48;32.70;58.50
41876;DHT22;27555;50.808;4.402;2022-08-14T08:43:23;32.80;58.40
41876;DHT22;27555;50.808;4.402;2022-08-14T08:45:59;32.90;57.80
41876;DHT22;27555;50.808;4.402;2022-08-14T08:48:26;32.70;58.20
41876;DHT22;27555;50.808;4.402;2022-08-14T08:51:00;32.30;58.40
41876;DHT22;27555;50.808;4.402;2022-08-14T08:53:31;32.10;58.80
41876;DHT22;27555;50.808;4.402;2022-08-14T08:55:57;31.80;59.10
41876;DHT22;27555;50.808;4.402;2022-08-14T08:58:23;31.80;59.10
41876;DHT22;27555;50.808;4.402;2022-08-14T09:00:53;31.90;59.30
41876;DHT22;27555;50.808;4.402;2022-08-14T09:03:21;32.00;59.20
41876;DHT22;27555;50.808;4.402;2022-08-14T09:06:01;31.90;59.90
41876;DHT22;27555;50.808;4.402;2022-08-14T09:08:33;31.60;59.80
41876;DHT22;27555;50.808;4.402;2022-08-14T09:11:02;31.60;59.60
41876;DHT22;27555;50.808;4.402;2022-08-14T09:13:28;31.60;60.30
41876;DHT22;27555;50.808;4.402;2022-08-14T09:15:54;31.60;60.20
41876;DHT22;27555;50.808;4.402;2022-08-14T09:18:21;31.70;60.10
41876;DHT22;27555;50.808;4.402;2022-08-14T09:20:52;31.90;59.90
41876;DHT22;27555;50.808;4.402;2022-08-14T09:23:18;32.30;59.20
41876;DHT22;27555;50.808;4.402;2022-08-14T09:25:46;32.20;59.10
41876;DHT22;27555;50.808;4.402;2022-08-14T09:28:13;32.10;59.20
41876;DHT22;27555;50.808;4.402;2022-08-14T09:30:42;32.10;59.80
41876;DHT22;27555;50.808;4.402;2022-08-14T09:42:59;31.70;60.90
41876;DHT22;27555;50.808;4.402;2022-08-14T09:45:34;31.40;61.50
41876;DHT22;27555;50.808;4.402;2022-08-14T09:48:01;31.20;62.50
41876;DHT22;27555;50.808;4.402;2022-08-14T09:50:31;31.20;63.00
41876;DHT22;27555;50.808;4.402;2022-08-14T09:53:08;31.50;62.80
41876;DHT22;27555;50.808;4.402;2022-08-14T09:55:35;31.70;62.50
41876;DHT22;27555;50.808;4.402;2022-08-14T09:58:18;31.90;62.40
41876;DHT22;27555;50.808;4.402;2022-08-14T10:00:48;32.30;61.90
41876;DHT22;27555;50.808;4.402;2022-08-14T10:03:34;33.00;61.50
41876;DHT22;27555;50.808;4.402;2022-08-14T10:06:09;34.30;60.30
41876;DHT22;27555;50.808;4.402;2022-08-14T10:08:49;35.00;58.40
41876;DHT22;27555;50.808;4.402;2022-08-14T10:11:19;35.20;58.60
41876;DHT22;27555;50.808;4.402;2022-08-14T10:13:47;34.90;57.30
41876;DHT22;27555;50.808;4.402;2022-08-14T10:16:13;34.60;56.80
41876;DHT22;27555;50.808;4.402;2022-08-14T10:18:40;34.70;55.60
41876;DHT22;27555;50.808;4.402;2022-08-14T10:21:08;35.30;56.00
41876;DHT22;27555;50.808;4.402;2022-08-14T10:23:42;35.90;54.40
41876;DHT22;27555;50.808;4.402;2022-08-14T10:26:09;36.40;53.30
41876;DHT22;27555;50.808;4.402;2022-08-14T10:29:05;36.80;52.60
41876;DHT22;27555;50.808;4.402;2022-08-14T10:31:31;37.50;51.90
41876;DHT22;27555;50.808;4.402;2022-08-14T10:36:37;38.90;50.80
41876;DHT22;27555;50.808;4.402;2022-08-14T10:39:15;39.20;49.80
41876;DHT22;27555;50.808;4.402;2022-08-14T10:41:43;40.20;49.30
41876;DHT22;27555;50.808;4.402;2022-08-14T10:44:17;40.40;49.80
41876;DHT22;27555;50.808;4.402;2022-08-14T10:46:51;40.80;48.90
41876;DHT22;27555;50.808;4.402;2022-08-14T10:49:22;41.30;48.60
41876;DHT22;27555;50.808;4.402;2022-08-14T10:51:59;41.50;47.30
41876;DHT22;27555;50.808;4.402;2022-08-14T10:54:30;41.00;47.20
41876;DHT22;27555;50.808;4.402;2022-08-14T10:57:23;40.80;46.90
41876;DHT22;27555;50.808;4.402;2022-08-14T10:59:55;41.20;47.00
41876;DHT22;27555;50.808;4.402;2022-08-14T11:02:30;41.60;47.20
41876;DHT22;27555;50.808;4.402;2022-08-14T11:05:17;41.60;46.20
41876;DHT22;27555;50.808;4.402;2022-08-14T11:07:59;42.10;45.80
41876;DHT22;27555;50.808;4.402;2022-08-14T11:10:52;43.00;45.30
41876;DHT22;27555;50.808;4.402;2022-08-14T11:13:40;42.20;45.10
41876;DHT22;27555;50.808;4.402;2022-08-14T11:16:09;43.00;45.30
41876;DHT22;27555;50.808;4.402;2022-08-14T11:18:36;42.40;45.40
41876;DHT22;27555;50.808;4.402;2022-08-14T11:21:03;41.30;45.00
41876;DHT22;27555;50.808;4.402;2022-08-14T11:23:33;41.10;44.40
41876;DHT22;27555;50.808;4.402;2022-08-14T11:26:00;41.50;44.60
41876;DHT22;27555;50.808;4.402;2022-08-14T11:28:30;41.30;44.40
41876;DHT22;27555;50.808;4.402;2022-08-14T11:30:58;41.60;44.10
41876;DHT22;27555;50.808;4.402;2022-08-14T11:33:27;40.80;44.10
41876;DHT22;27555;50.808;4.402;2022-08-14T11:35:57;39.80;44.30
41876;DHT22;27555;50.808;4.402;2022-08-14T11:38:36;39.40;44.60
41876;DHT22;27555;50.808;4.402;2022-08-14T11:41:02;38.70;45.10
41876;DHT22;27555;50.808;4.402;2022-08-14T11:43:27;38.50;45.00
41876;DHT22;27555;50.808;4.402;2022-08-14T11:45:53;38.20;45.30
41876;DHT22;27555;50.808;4.402;2022-08-14T11:48:24;38.20;45.40
41876;DHT22;27555;50.808;4.402;2022-08-14T11:50:51;38.80;45.60
41876;DHT22;27555;50.808;4.402;2022-08-14T11:53:25;38.80;45.00
41876;DHT22;27555;50.808;4.402;2022-08-14T11:56:01;39.20;44.70
41876;DHT22;27555;50.808;4.402;2022-08-14T11:58:37;39.00;45.00
41876;DHT22;27555;50.808;4.402;2022-08-14T12:01:07;38.90;44.40
41876;DHT22;27555;50.808;4.402;2022-08-14T12:03:38;38.70;44.50
41876;DHT22;27555;50.808;4.402;2022-08-14T12:06:09;38.60;44.80
41876;DHT22;27555;50.808;4.402;2022-08-14T12:08:37;38.20;44.70
41876;DHT22;27555;50.808;4.402;2022-08-14T12:11:05;38.00;45.20
41876;DHT22;27555;50.808;4.402;2022-08-14T12:13:31;37.80;44.70
41876;DHT22;27555;50.808;4.402;2022-08-14T12:18:30;37.80;44.40
41876;DHT22;27555;50.808;4.402;2022-08-14T12:20:57;37.20;44.40
41876;DHT22;27555;50.808;4.402;2022-08-14T12:23:24;37.10;44.30
41876;DHT22;27555;50.808;4.402;2022-08-14T12:26:04;36.50;43.90
41876;DHT22;27555;50.808;4.402;2022-08-14T12:28:30;36.40;43.90
41876;DHT22;27555;50.808;4.402;2022-08-14T12:30:56;36.60;44.00
41876;DHT22;27555;50.808;4.402;2022-08-14T12:33:27;36.30;43.70
41876;DHT22;27555;50.808;4.402;2022-08-14T12:35:56;36.10;44.10
41876;DHT22;27555;50.808;4.402;2022-08-14T12:38:42;36.50;44.40
41876;DHT22;27555;50.808;4.402;2022-08-14T12:41:20;36.50;44.70
41876;DHT22;27555;50.808;4.402;2022-08-14T12:43:50;36.20;44.10
41876;DHT22;27555;50.808;4.402;2022-08-14T12:46:25;36.00;44.40
41876;DHT22;27555;50.808;4.402;2022-08-14T12:48:52;36.10;45.00
41876;DHT22;27555;50.808;4.402;2022-08-14T12:51:20;36.30;45.00
41876;DHT22;27555;50.808;4.402;2022-08-14T12:53:47;35.90;45.20
41876;DHT22;27555;50.808;4.402;2022-08-14T12:56:21;35.80;45.70
41876;DHT22;27555;50.808;4.402;2022-08-14T12:58:56;35.80;45.40
41876;DHT22;27555;50.808;4.402;2022-08-14T13:01:27;35.90;45.40
41876;DHT22;27555;50.808;4.402;2022-08-14T13:04:16;35.90;45.90
41876;DHT22;27555;50.808;4.402;2022-08-14T13:06:43;35.70;45.70
41876;DHT22;27555;50.808;4.402;2022-08-14T13:09:12;35.80;45.80
41876;DHT22;27555;50.808;4.402;2022-08-14T13:11:42;36.10;46.20
41876;DHT22;27555;50.808;4.402;2022-08-14T13:14:15;36.10;45.90
41876;DHT22;27555;50.808;4.402;2022-08-14T13:16:42;35.30;46.00
41876;DHT22;27555;50.808;4.402;2022-08-14T13:19:14;35.50;46.20
41876;DHT22;27555;50.808;4.402;2022-08-14T13:21:44;35.60;45.90
41876;DHT22;27555;50.808;4.402;2022-08-14T13:24:12;35.40;46.00
41876;DHT22;27555;50.808;4.402;2022-08-14T13:26:46;35.50;46.00
41876;DHT22;27555;50.808;4.402;2022-08-14T13:29:18;35.70;46.00
41876;DHT22;27555;50.808;4.402;2022-08-14T13:31:53;35.50;46.20
41876;DHT22;27555;50.808;4.402;2022-08-14T13:34:26;35.60;47.00
41876;DHT22;27555;50.808;4.402;2022-08-14T13:36:53;35.70;46.20
41876;DHT22;27555;50.808;4.402;2022-08-14T13:39:23;35.40;46.40
41876;DHT22;27555;50.808;4.402;2022-08-14T13:41:49;34.80;47.00
41876;DHT22;27555;50.808;4.402;2022-08-14T13:44:18;34.80;47.00
41876;DHT22;27555;50.808;4.402;2022-08-14T13:46:48;35.00;47.10
41876;DHT22;27555;50.808;4.402;2022-08-14T13:49:15;35.00;46.50
41876;DHT22;27555;50.808;4.402;2022-08-14T13:51:46;35.20;46.40
41876;DHT22;27555;50.808;4.402;2022-08-14T13:54:16;35.90;46.70
41876;DHT22;27555;50.808;4.402;2022-08-14T13:56:47;35.80;46.70
41876;DHT22;27555;50.808;4.402;2022-08-14T13:59:17;35.60;46.00
41876;DHT22;27555;50.808;4.402;2022-08-14T14:01:43;35.70;46.40
41876;DHT22;27555;50.808;4.402;2022-08-14T14:04:15;35.50;46.80
41876;DHT22;27555;50.808;4.402;2022-08-14T14:06:45;35.20;46.50
41876;DHT22;27555;50.808;4.402;2022-08-14T14:09:14;35.10;46.90
41876;DHT22;27555;50.808;4.402;2022-08-14T14:11:42;35.00;46.20
41876;DHT22;27555;50.808;4.402;2022-08-14T14:14:08;35.20;46.40
41876;DHT22;27555;50.808;4.402;2022-08-14T14:16:38;35.40;46.20
41876;DHT22;27555;50.808;4.402;2022-08-14T14:19:04;35.30;46.00
41876;DHT22;27555;50.808;4.402;2022-08-14T14:21:31;35.20;46.90
41876;DHT22;27555;50.808;4.402;2022-08-14T14:23:58;35.40;46.80
41876;DHT22;27555;50.808;4.402;2022-08-14T14:26:23;36.00;46.20
41876;DHT22;27555;50.808;4.402;2022-08-14T14:28:54;35.40;46.30
41876;DHT22;27555;50.808;4.402;2022-08-14T14:31:25;35.30;46.50
41876;DHT22;27555;50.808;4.402;2022-08-14T14:33:59;35.60;47.00
41876;DHT22;27555;50.808;4.402;2022-08-14T14:36:27;35.40;46.50
41876;DHT22;27555;50.808;4.402;2022-08-14T14:38:56;35.20;47.00
41876;DHT22;27555;50.808;4.402;2022-08-14T14:41:23;35.00;46.90
41876;DHT22;27555;50.808;4.402;2022-08-14T14:43:50;35.00;47.30
41876;DHT22;27555;50.808;4.402;2022-08-14T14:46:17;34.80;47.20
41876;DHT22;27555;50.808;4.402;2022-08-14T14:48:44;34.80;47.40
41876;DHT22;27555;50.808;4.402;2022-08-14T14:51:12;34.80;46.90
41876;DHT22;27555;50.808;4.402;2022-08-14T14:53:42;34.60;47.10
41876;DHT22;27555;50.808;4.402;2022-08-14T14:56:09;34.80;47.70
41876;DHT22;27555;50.808;4.402;2022-08-14T14:58:36;35.00;47.60
41876;DHT22;27555;50.808;4.402;2022-08-14T15:01:06;35.00;48.80
41876;DHT22;27555;50.808;4.402;2022-08-14T15:03:37;34.80;48.50
41876;DHT22;27555;50.808;4.402;2022-08-14T15:06:04;34.70;49.30
41876;DHT22;27555;50.808;4.402;2022-08-14T15:08:30;34.50;49.50
41876;DHT22;27555;50.808;4.402;2022-08-14T15:10:57;34.40;49.50
41876;DHT22;27555;50.808;4.402;2022-08-14T15:13:25;34.40;47.20
41876;DHT22;27555;50.808;4.402;2022-08-14T15:15:51;34.30;48.30
41876;DHT22;27555;50.808;4.402;2022-08-14T15:18:20;34.40;48.90
41876;DHT22;27555;50.808;4.402;2022-08-14T15:20:47;34.80;48.50
41876;DHT22;27555;50.808;4.402;2022-08-14T15:23:13;34.80;48.50
41876;DHT22;27555;50.808;4.402;2022-08-14T15:25:42;34.50;48.30
41876;DHT22;27555;50.808;4.402;2022-08-14T15:28:09;34.60;48.20
41876;DHT22;27555;50.808;4.402;2022-08-14T15:30:42;34.80;47.00
41876;DHT22;27555;50.808;4.402;2022-08-14T15:33:09;34.70;46.40
41876;DHT22;27555;50.808;4.402;2022-08-14T15:35:35;34.50;47.20
41876;DHT22;27555;50.808;4.402;2022-08-14T15:38:02;34.50;46.60
41876;DHT22;27555;50.808;4.402;2022-08-14T15:40:39;34.50;46.80
41876;DHT22;27555;50.808;4.402;2022-08-14T15:43:07;34.50;46.50
41876;DHT22;27555;50.808;4.402;2022-08-14T15:45:37;34.50;47.30
41876;DHT22;27555;50.808;4.402;2022-08-14T15:48:06;34.60;47.10
41876;DHT22;27555;50.808;4.402;2022-08-14T15:50:32;34.40;46.60
41876;DHT22;27555;50.808;4.402;2022-08-14T15:52:57;34.30;47.60
41876;DHT22;27555;50.808;4.402;2022-08-14T15:55:23;34.30;48.00
41876;DHT22;27555;50.808;4.402;2022-08-14T15:57:49;34.40;47.90
41876;DHT22;27555;50.808;4.402;2022-08-14T16:00:15;34.40;47.80